Time;durP1;ratioP1;P1;durP2;ratioP2;P2;SDS_P1;SDS_P2;PMS_P1;PMS_P2;Temp;Humidity;BMP_temperature;BMP_pressure;BME280_temperature;BME280_humidity;BME280_pressure;Samples;Min_cycle;Max_cycle;Signal;HPM_P1;HPM_P2
2023/01/03 00:05:54;;;;;;;2.00;1.87;;;;;;;11.27;70.29;101395.25;18361234;32;20119;-61
2023/01/03 00:15:58;;;;;;;3.15;1.60;;;;;;;11.32;70.15;101394.44;18359586;32;20102;-60
2023/01/03 00:26:10;;;;;;;2.45;1.25;;;;;;;11.29;70.35;101398.78;18359412;32;20361;-61
2023/01/03 00:36:13;;;;;;;3.78;3.45;;;;;;;11.34;70.07;101403.22;18363790;32;20097;-60
2023/01/03 00:46:19;;;;;;;2.58;2.08;;;;;;;11.31;70.19;101413.59;18358770;32;20384;-60
2023/01/03 00:56:24;;;;;;;4.45;2.37;;;;;;;11.49;69.32;101415.56;18358398;32;20141;-60
2023/01/03 01:06:31;;;;;;;2.35;1.55;;;;;;;11.26;70.56;101417.94;18357847;32;20146;-61
2023/01/03 01:16:34;;;;;;;1.35;1.25;;;;;;;11.28;70.53;101425.75;18358601;32;20345;-60
2023/01/03 01:26:39;;;;;;;1.30;0.95;;;;;;;11.35;70.30;101431.09;18356988;32;20157;-60
2023/01/03 01:36:43;;;;;;;4.65;2.83;;;;;;;11.39;70.26;101424.16;18356299;32;20110;-60
2023/01/03 01:46:48;;;;;;;2.53;1.83;;;;;;;11.41;70.00;101414.59;18357319;32;20116;-60
2023/01/03 01:56:53;;;;;;;7.72;3.53;;;;;;;11.42;69.99;101418.97;18355793;32;20185;-60
2023/01/03 02:06:58;;;;;;;1.60;1.37;;;;;;;11.36;70.02;101426.72;18355304;32;20423;-61
2023/01/03 02:17:06;;;;;;;0.90;0.90;;;;;;;11.30;70.14;101429.28;18355038;32;20112;-60
2023/01/03 02:27:24;;;;;;;0.77;0.77;;;;;;;11.24;70.27;101425.75;18354387;32;20521;-60
2023/01/03 02:37:33;;;;;;;1.55;0.98;;;;;;;11.18;69.91;101420.44;18354761;32;20085;-61
2023/01/03 02:47:44;;;;;;;0.70;0.60;;;;;;;11.17;69.95;101438.72;18354318;32;20104;-60
2023/01/03 02:57:54;;;;;;;1.40;1.00;;;;;;;11.06;70.04;101433.34;18352771;32;20108;-60
2023/01/03 03:07:57;;;;;;;0.30;0.30;;;;;;;11.08;70.04;101442.09;18353569;32;20109;-60
2023/01/03 03:18:05;;;;;;;0.90;0.90;;;;;;;11.02;69.82;101434.19;18357929;32;20445;-60
2023/01/03 03:38:35;;;;;;;0.85;0.85;;;;;;;10.90;70.04;101430.53;18361246;32;20074;-61
2023/01/03 03:59:06;;;;;;;0.65;0.65;;;;;;;10.77;70.25;101433.84;18357773;32;85515;-60
2023/01/03 04:09:10;;;;;;;1.48;1.37;;;;;;;10.48;71.59;101432.59;18360092;32;20433;-60
2023/01/03 04:19:15;;;;;;;1.75;1.65;;;;;;;10.73;70.40;101438.16;18359926;32;20094;-60
2023/01/03 04:29:18;;;;;;;3.20;2.22;;;;;;;10.84;69.71;101448.75;18357924;32;20495;-61
2023/01/03 04:39:23;;;;;;;0.70;0.70;;;;;;;10.55;70.07;101452.69;18362101;32;20149;-61
2023/01/03 04:49:26;;;;;;;2.22;1.12;;;;;;;10.54;69.78;101452.69;18411687;32;20479;-60
2023/01/03 04:59:31;;;;;;;0.65;0.65;;;;;;;10.31;70.07;101454.91;18421879;32;20372;-60
2023/01/03 05:09:34;;;;;;;0.85;0.85;;;;;;;10.21;69.96;101461.72;18421788;32;20154;-61
2023/01/03 05:25:48;;;;;;;2.12;0.80;;;;;;;10.16;69.57;101472.06;18421096;32;20106;-60
2023/01/03 05:30:02;;;;;;;1.50;1.40;;;;;;;9.96;69.83;101480.44;18413451;32;20172;-60
2023/01/03 05:40:10;;;;;;;0.70;0.70;;;;;;;9.86;70.03;101509.81;18390666;32;20089;-61
2023/01/03 05:50:13;;;;;;;2.05;1.90;;;;;;;9.81;70.08;101507.13;18403186;32;20097;-60
2023/01/03 06:00:22;;;;;;;1.08;1.05;;;;;;;9.76;69.87;101521.78;18378819;32;20580;-61
2023/01/03 06:10:30;;;;;;;0.88;0.88;;;;;;;9.66;69.69;101506.81;18411862;32;20097;-61
2023/01/03 06:20:35;;;;;;;3.95;1.75;;;;;;;9.49;69.50;101515.22;18416078;32;20169;-60
2023/01/03 06:30:38;;;;;;;0.75;0.57;;;;;;;9.25;69.88;101523.41;18414898;32;20093;-60
2023/01/03 06:40:48;;;;;;;0.50;0.50;;;;;;;9.15;69.95;101533.62;18417396;32;20144;-60
2023/01/03 07:01:14;;;;;;;1.67;1.58;;;;;;;9.18;69.53;101545.81;18426437;32;20383;-60
2023/01/03 07:11:17;;;;;;;3.05;2.75;;;;;;;9.05;70.37;101564.63;18426305;32;20109;-60
2023/01/03 07:21:22;;;;;;;0.80;0.80;;;;;;;9.22;70.93;101571.09;18425914;32;20141;-60
2023/01/03 07:31:26;;;;;;;1.15;1.10;;;;;;;9.59;70.61;101584.03;18417349;32;20107;-60
2023/01/03 07:51:47;;;;;;;0.77;0.77;;;;;;;9.49;71.11;101598.63;18362799;31;20433;-60
2023/01/03 08:01:52;;;;;;;2.12;1.02;;;;;;;9.87;70.30;101597.62;18365851;32;20102;-61
2023/01/03 08:22:17;;;;;;;1.50;1.40;;;;;;;10.17;70.48;101629.53;18417287;32;20108;-61
2023/01/03 08:32:21;;;;;;;0.40;0.40;;;;;;;10.37;70.39;101637.72;18384707;32;20097;-60
2023/01/03 08:42:25;;;;;;;4.20;1.85;;;;;;;9.97;72.08;101645.66;18390685;32;20093;-60
2023/01/03 08:52:30;;;;;;;0.52;0.52;;;;;;;10.40;70.62;101643.00;18386740;31;20101;-61
2023/01/03 09:02:40;;;;;;;0.98;0.88;;;;;;;10.57;70.17;101652.88;18422413;32;20187;-60
2023/01/03 09:12:43;;;;;;;2.50;2.30;;;;;;;10.68;70.16;101661.81;18376302;32;20710;-60
2023/01/03 09:22:48;;;;;;;3.25;2.55;;;;;;;10.83;70.34;101664.69;18357167;32;20104;-60
2023/01/03 09:32:51;;;;;;;3.60;1.67;;;;;;;10.79;71.61;101656.75;18391917;32;20168;-60
2023/01/03 09:43:15;;;;;;;0.80;0.80;;;;;;;10.89;71.56;101663.03;18372302;32;20098;-60
2023/01/03 10:04:04;;;;;;;0.50;0.50;;;;;;;10.72;72.45;101652.28;18374872;32;20196;-61
2023/01/03 10:14:17;;;;;;;0.60;0.60;;;;;;;11.47;69.05;101647.34;18373893;32;20100;-60
2023/01/03 10:24:23;;;;;;;2.28;1.92;;;;;;;11.68;68.50;101650.25;18378573;32;20437;-60
2023/01/03 10:34:26;;;;;;;1.45;1.35;;;;;;;11.40;68.56;101650.75;18375441;32;20093;-60
2023/01/03 10:44:32;;;;;;;0.65;0.65;;;;;;;11.60;67.87;101640.56;18376280;32;20098;-60
2023/01/03 10:54:47;;;;;;;0.60;0.60;;;;;;;11.09;69.30;101635.50;18389568;32;20117;-60
2023/01/03 11:05:11;;;;;;;1.37;1.27;;;;;;;11.59;68.35;101624.88;18416636;32;20136;-61
2023/01/03 11:15:17;;;;;;;1.60;0.93;;;;;;;12.17;66.64;101613.37;18369861;32;20093;-61
2023/01/03 11:25:33;;;;;;;0.95;0.93;;;;;;;12.16;66.71;101602.00;18378531;32;20089;-61
2023/01/03 11:35:53;;;;;;;0.52;0.52;;;;;;;11.49;68.57;101608.16;18426407;31;20146;-61
2023/01/03 11:46:17;;;;;;;0.60;0.60;;;;;;;12.38;66.30;101610.09;18391441;32;20125;-61
2023/01/03 11:56:26;;;;;;;0.55;0.55;;;;;;;11.63;67.26;101597.88;18392404;31;20097;-61
2023/01/03 12:06:35;;;;;;;0.43;0.43;;;;;;;11.57;67.80;101593.47;18391281;32;20181;-61
2023/01/03 12:16:44;;;;;;;0.98;0.55;;;;;;;12.57;65.46;101595.41;18391280;32;20103;-61
2023/01/03 12:26:55;;;;;;;1.40;1.30;;;;;;;12.58;65.20;101594.56;18392151;32;20143;-61
2023/01/03 12:37:07;;;;;;;0.80;0.70;;;;;;;11.47;67.62;101589.81;18389998;32;20085;-61
2023/01/03 12:47:20;;;;;;;0.55;0.55;;;;;;;12.45;64.90;101582.22;18389151;32;20107;-61
2023/01/03 12:57:54;;;;;;;0.55;0.55;;;;;;;12.25;65.12;101590.78;18383173;32;20429;-61
2023/01/03 13:08:05;;;;;;;0.45;0.45;;;;;;;12.71;64.11;101594.66;18548247;32;20208;-61
2023/01/03 13:18:32;;;;;;;2.10;0.98;;;;;;;12.87;63.47;101590.44;18546716;32;20491;-61
2023/01/03 13:28:37;;;;;;;0.82;0.70;;;;;;;11.92;66.64;101589.50;18546664;32;20128;-61
2023/01/03 13:38:40;;;;;;;1.73;1.48;;;;;;;12.62;64.83;101592.84;18505381;32;20119;-60
2023/01/03 13:48:55;;;;;;;0.30;0.30;;;;;;;12.87;63.48;101607.00;18387729;32;20136;-61
2023/01/03 13:59:09;;;;;;;0.75;0.73;;;;;;;12.62;64.17;101605.94;18385173;32;20116;-61
2023/01/03 14:09:26;;;;;;;1.05;0.95;;;;;;;12.80;63.47;101593.84;18383941;32;20221;-60
2023/01/03 14:19:32;;;;;;;0.45;0.45;;;;;;;12.94;63.18;101607.06;18408691;31;20089;-61
2023/01/03 14:29:38;;;;;;;0.50;0.50;;;;;;;12.83;62.38;101613.09;18415265;32;20645;-60
2023/01/03 14:39:52;;;;;;;1.95;1.45;;;;;;;12.99;61.56;101624.56;18376652;32;20097;-61
2023/01/03 14:50:02;;;;;;;0.70;0.70;;;;;;;12.97;61.57;101628.03;18371126;32;20093;-61
2023/01/03 15:00:08;;;;;;;0.70;0.67;;;;;;;12.74;62.11;101629.59;18379090;31;20089;-59
2023/01/03 15:10:21;;;;;;;1.10;0.77;;;;;;;12.59;62.54;101625.12;18380829;32;20097;-59
2023/01/03 15:20:31;;;;;;;0.60;0.60;;;;;;;11.23;67.64;101637.41;18389437;32;20085;-59
2023/01/03 15:30:46;;;;;;;7.30;2.80;;;;;;;11.57;66.20;101647.47;18388189;32;20085;-59
2023/01/03 15:40:50;;;;;;;4.65;2.30;;;;;;;11.99;64.56;101654.16;18387716;32;20096;-59
2023/01/03 15:50:55;;;;;;;0.50;0.50;;;;;;;11.87;64.85;101672.31;18386969;32;20136;-59
2023/01/03 16:00:59;;;;;;;1.55;1.37;;;;;;;11.75;65.32;101675.66;18385554;32;20179;-59
2023/01/03 16:11:06;;;;;;;1.40;1.15;;;;;;;11.89;64.53;101681.06;18389329;32;20093;-59
2023/01/03 16:21:09;;;;;;;2.35;1.75;;;;;;;11.86;64.54;101699.34;18380584;32;20138;-59
2023/01/03 16:31:17;;;;;;;3.90;1.75;;;;;;;11.54;65.76;101710.22;18423318;32;20092;-59
2023/01/03 16:41:20;;;;;;;2.00;1.85;;;;;;;11.70;65.14;101716.53;18422909;32;20097;-59
2023/01/03 16:51:27;;;;;;;0.98;0.98;;;;;;;11.70;64.97;101722.66;18421720;32;20105;-58
2023/01/03 17:01:30;;;;;;;2.05;1.85;;;;;;;11.72;65.07;101738.41;18422062;32;20105;-59
2023/01/03 17:11:35;;;;;;;0.90;0.75;;;;;;;11.71;64.88;101745.34;18422083;32;20373;-59
2023/01/03 17:21:38;;;;;;;5.37;2.25;;;;;;;11.56;65.34;101755.56;18421449;32;20132;-58
2023/01/03 17:31:43;;;;;;;0.65;0.65;;;;;;;11.26;66.69;101764.69;18421339;32;20104;-59
2023/01/03 17:52:14;;;;;;;1.65;1.50;;;;;;;11.46;65.96;101765.87;18419875;31;20104;-60
2023/01/03 18:02:19;;;;;;;6.60;2.00;;;;;;;11.46;66.14;101784.19;18419605;32;20077;-59
2023/01/03 18:12:25;;;;;;;2.25;1.83;;;;;;;11.51;66.03;101785.16;18418668;32;20096;-58
2023/01/03 18:22:28;;;;;;;1.83;1.67;;;;;;;11.28;66.84;101807.41;18420028;31;20120;-58
2023/01/03 18:32:34;;;;;;;1.05;1.00;;;;;;;11.34;66.66;101803.19;18417820;32;20433;-59
2023/01/03 18:53:03;;;;;;;0.50;0.50;;;;;;;11.27;66.85;101795.19;18429350;31;20126;-59
2023/01/03 19:03:19;;;;;;;5.00;1.45;;;;;;;11.08;67.77;101789.63;18427069;32;20137;-59
2023/01/03 19:13:26;;;;;;;2.85;2.62;;;;;;;11.04;68.39;101793.91;18426713;32;20077;-59
2023/01/03 19:23:30;;;;;;;1.35;1.23;;;;;;;11.05;68.24;101795.72;18426186;32;20380;-59
2023/01/03 19:33:35;;;;;;;0.82;0.82;;;;;;;11.12;68.32;101790.56;18418409;32;20955;-59
2023/01/03 19:43:38;;;;;;;0.98;0.95;;;;;;;11.26;68.32;101799.56;18360943;32;20109;-58
2023/01/03 19:53:43;;;;;;;2.50;2.28;;;;;;;11.12;69.44;101799.31;18364907;32;20125;-59
2023/01/03 20:03:48;;;;;;;1.50;1.35;;;;;;;10.99;69.80;101806.03;18418138;32;20656;-59
2023/01/03 20:13:52;;;;;;;0.70;0.70;;;;;;;11.12;69.10;101815.00;18418040;32;20100;-58
2023/01/03 20:23:58;;;;;;;1.90;1.50;;;;;;;11.14;68.68;101815.91;18406217;32;20115;-58
2023/01/03 20:34:05;;;;;;;1.48;1.37;;;;;;;11.03;68.73;101818.28;18419935;32;20390;-59
2023/01/03 20:44:10;;;;;;;1.52;1.40;;;;;;;11.08;68.32;101818.38;18364703;32;20128;-59
2023/01/03 20:54:14;;;;;;;3.58;2.00;;;;;;;10.88;68.93;101813.66;18419611;31;20097;-59
2023/01/03 21:04:17;;;;;;;1.50;1.48;;;;;;;11.03;68.28;101807.84;18411779;32;20085;-58
2023/01/03 21:14:22;;;;;;;0.95;0.95;;;;;;;10.76;68.90;101790.78;18375052;32;20101;-58
2023/01/03 21:24:25;;;;;;;2.17;1.75;;;;;;;10.78;68.60;101796.06;18419889;32;20085;-59
2023/01/03 21:34:31;;;;;;;0.80;0.80;;;;;;;10.90;67.60;101811.97;18415982;32;20097;-58
2023/01/03 21:44:34;;;;;;;0.77;0.73;;;;;;;11.00;66.26;101817.34;18407038;32;20349;-59
2023/01/03 21:54:39;;;;;;;0.50;0.50;;;;;;;10.86;65.96;101810.16;18393220;32;20111;-58
2023/01/03 22:04:42;;;;;;;0.50;0.50;;;;;;;10.82;65.22;101831.84;18372874;32;20151;-58
2023/01/03 22:14:47;;;;;;;0.50;0.50;;;;;;;10.85;63.42;101818.84;18413267;32;20111;-59
2023/01/03 22:24:50;;;;;;;0.50;0.50;;;;;;;10.45;61.58;101837.19;18365308;31;20717;-58
2023/01/03 22:34:55;;;;;;;0.95;0.80;;;;;;;10.82;61.24;101834.47;18352800;32;20090;-58
2023/01/03 22:44:58;;;;;;;0.40;0.40;;;;;;;10.38;61.18;101840.47;18352952;32;20158;-58
2023/01/03 22:55:03;;;;;;;0.50;0.50;;;;;;;10.83;57.08;101851.91;18350530;31;20142;-58
2023/01/03 23:05:06;;;;;;;0.50;0.50;;;;;;;11.06;56.33;101838.38;18365139;32;20089;-59
2023/01/03 23:15:11;;;;;;;0.50;0.50;;;;;;;11.09;56.75;101838.44;18403512;32;20102;-59
2023/01/03 23:25:15;;;;;;;0.40;0.40;;;;;;;11.01;56.89;101834.81;18349237;32;20391;-58
2023/01/03 23:35:19;;;;;;;1.62;0.95;;;;;;;10.62;55.47;101829.72;18354572;32;20134;-59
2023/01/03 23:45:22;;;;;;;0.45;0.45;;;;;;;10.90;52.90;101819.78;18389459;32;20088;-58
2023/01/03 23:55:27;;;;;;;1.70;1.58;;;;;;;10.92;52.84;101818.12;18424134;32;20093;-59
